createdAt,value
2022-09-07T00:00:28.711Z,47.15
2022-09-07T00:02:55.977Z,43.17
2022-09-07T00:05:23.213Z,49.97
2022-09-07T00:07:50.522Z,49.55
2022-09-07T00:10:18.230Z,51.53
2022-09-07T00:12:45.382Z,45.75
2022-09-07T00:15:12.900Z,49.67
2022-09-07T00:17:40.347Z,51.05
2022-09-07T00:20:08.753Z,50.03
2022-09-07T00:22:36.042Z,49.47
2022-09-07T00:25:03.383Z,50.83
2022-09-07T00:27:30.548Z,49.83
2022-09-07T00:29:57.691Z,48.55
2022-09-07T00:32:24.970Z,50.17
2022-09-07T00:34:52.214Z,50.08
2022-09-07T00:37:19.500Z,50.42
2022-09-07T00:39:47.135Z,46.85
2022-09-07T00:42:14.322Z,47.90
2022-09-07T00:44:44.362Z,46.22
2022-09-07T00:47:14.729Z,45.67
2022-09-07T00:49:43.051Z,53.08
2022-09-07T00:52:11.523Z,46.13
2022-09-07T00:54:41.353Z,50.28
2022-09-07T00:57:08.675Z,51.10
2022-09-07T00:59:38.510Z,51.30
2022-09-07T01:02:06.513Z,50.38
2022-09-07T01:04:33.951Z,50.92
2022-09-07T01:07:04.682Z,50.80
2022-09-07T01:09:32.432Z,46.08
2022-09-07T01:12:00.810Z,53.47
2022-09-07T01:14:29.337Z,54.67
2022-09-07T01:17:05.721Z,51.58
2022-09-07T01:19:51.737Z,49.63
2022-09-07T01:22:37.529Z,48.13
2022-09-07T01:25:07.808Z,48.50
2022-09-07T01:27:43.993Z,46.57
2022-09-07T01:30:15.255Z,42.85
2022-09-07T01:35:14.790Z,46.05
2022-09-07T01:37:48.951Z,41.30
2022-09-07T01:40:20.131Z,50.95
2022-09-07T01:45:16.082Z,46.42
2022-09-07T01:47:48.257Z,44.00
2022-09-07T01:50:18.269Z,43.20
2022-09-07T01:52:49.370Z,48.83
2022-09-07T01:55:19.829Z,42.15
2022-09-07T01:57:50.037Z,40.08
2022-09-07T02:00:18.612Z,39.08
2022-09-07T02:03:12.326Z,38.38
2022-09-07T02:05:58.389Z,33.60
2022-09-07T02:08:25.597Z,36.15
2022-09-07T02:10:55.811Z,33.70
2022-09-07T02:13:23.110Z,35.58
2022-09-07T02:15:58.837Z,32.08
2022-09-07T02:18:27.623Z,32.08
2022-09-07T02:20:56.982Z,28.30
2022-09-07T02:23:33.789Z,27.48
2022-09-07T02:26:03.986Z,26.95
2022-09-07T02:28:33.440Z,28.08
2022-09-07T02:31:00.997Z,25.77
2022-09-07T02:33:29.302Z,26.35
2022-09-07T02:35:56.528Z,25.67
2022-09-07T02:38:24.451Z,28.92
2022-09-07T02:40:55.478Z,25.50
2022-09-07T02:43:23.230Z,22.80
2022-09-07T02:46:09.061Z,24.13
2022-09-07T02:48:36.228Z,21.27
2022-09-07T02:51:10.135Z,22.05
2022-09-07T02:53:37.269Z,19.77
2022-09-07T02:56:13.343Z,19.23
2022-09-07T02:58:46.617Z,19.35
2022-09-07T03:01:32.596Z,15.98
2022-09-07T03:04:07.192Z,15.73
2022-09-07T03:06:37.818Z,15.70
2022-09-07T03:09:07.878Z,17.27
2022-09-07T03:11:37.716Z,12.52
2022-09-07T03:14:18.709Z,14.95
2022-09-07T03:16:47.063Z,14.25
2022-09-07T03:19:14.333Z,15.38
2022-09-07T03:21:41.493Z,16.23
2022-09-07T03:24:09.598Z,14.85
2022-09-07T03:26:41.503Z,11.57
2022-09-07T03:29:08.673Z,13.93
2022-09-07T03:31:36.413Z,12.30
2022-09-07T03:34:04.004Z,14.65
2022-09-07T03:36:31.539Z,14.40
2022-09-07T03:38:59.513Z,15.30
2022-09-07T03:41:27.646Z,17.75
2022-09-07T03:43:55.139Z,16.65
2022-09-07T03:46:22.471Z,15.55
2022-09-07T03:48:50.536Z,16.92
2022-09-07T03:51:18.470Z,14.05
2022-09-07T03:53:46.545Z,15.20
2022-09-07T03:56:20.563Z,14.43
2022-09-07T03:58:48.301Z,14.57
2022-09-07T04:01:17.408Z,12.88
2022-09-07T04:03:45.325Z,15.38
2022-09-07T04:06:13.114Z,15.77
2022-09-07T04:08:42.217Z,10.95
2022-09-07T04:11:11.599Z,13.18
2022-09-07T04:13:38.981Z,12.60
2022-09-07T04:16:12.481Z,16.10
2022-09-07T04:18:39.834Z,11.63
2022-09-07T04:21:07.394Z,13.98
2022-09-07T04:23:34.876Z,11.73
2022-09-07T04:26:02.103Z,12.98
2022-09-07T04:28:29.355Z,13.43
2022-09-07T04:30:56.668Z,13.30
2022-09-07T04:33:23.999Z,10.35
2022-09-07T04:35:51.200Z,12.85
2022-09-07T04:38:18.412Z,11.82
2022-09-07T04:40:45.661Z,10.07
2022-09-07T04:43:13.208Z,12.02
2022-09-07T04:45:40.873Z,10.52
2022-09-07T04:48:08.310Z,11.95
2022-09-07T04:50:35.525Z,12.52
2022-09-07T04:53:02.706Z,10.27
2022-09-07T04:55:29.929Z,10.93
2022-09-07T04:57:57.091Z,12.30
2022-09-07T05:00:24.266Z,11.18
2022-09-07T05:02:51.534Z,11.75
2022-09-07T05:05:19.143Z,12.23
2022-09-07T05:07:46.365Z,11.25
2022-09-07T05:10:13.727Z,13.88
2022-09-07T05:12:41.028Z,13.93
2022-09-07T05:15:08.335Z,14.57
2022-09-07T05:17:35.666Z,13.38
2022-09-07T05:20:02.978Z,12.65
2022-09-07T05:22:30.186Z,15.60
2022-09-07T05:24:57.515Z,13.57
2022-09-07T05:27:24.677Z,14.30
2022-09-07T05:30:08.233Z,14.63
2022-09-07T05:32:35.552Z,16.40
2022-09-07T05:35:02.743Z,13.75
2022-09-07T05:37:29.953Z,16.52
2022-09-07T05:39:57.419Z,15.45
2022-09-07T05:42:24.822Z,14.15
2022-09-07T05:44:53.101Z,14.35
2022-09-07T05:47:20.467Z,14.88
2022-09-07T05:49:47.612Z,16.27
2022-09-07T05:52:14.833Z,15.75
2022-09-07T05:54:42.276Z,13.73
2022-09-07T05:57:11.423Z,11.10
2022-09-07T05:59:38.635Z,12.73
2022-09-07T06:02:06.308Z,12.07
2022-09-07T06:04:33.697Z,10.90
2022-09-07T06:12:35.978Z,10.13
2022-09-07T06:15:03.451Z,11.43
2022-09-07T06:17:31.199Z,12.68
2022-09-07T06:19:58.442Z,10.93
2022-09-07T06:22:28.941Z,13.40
2022-09-07T06:24:58.129Z,9.68
2022-09-07T06:27:25.295Z,7.15
2022-09-07T06:29:52.614Z,9.65
2022-09-07T06:35:07.232Z,9.00
2022-09-07T06:37:34.402Z,10.75
2022-09-07T06:40:01.608Z,9.95
2022-09-07T06:42:28.928Z,8.88
2022-09-07T06:44:56.083Z,12.52
2022-09-07T06:47:23.278Z,9.73
2022-09-07T06:49:50.574Z,8.93
2022-09-07T06:52:17.731Z,8.68
2022-09-07T06:55:00.906Z,9.88
2022-09-07T06:57:28.509Z,10.23
2022-09-07T06:59:55.675Z,8.98
2022-09-07T07:02:22.873Z,9.88
2022-09-07T07:04:50.676Z,7.28
2022-09-07T07:07:17.901Z,10.23
2022-09-07T07:09:45.070Z,8.77
2022-09-07T07:12:12.427Z,9.52
2022-09-07T07:14:43.923Z,6.65
2022-09-07T07:17:12.225Z,5.82
2022-09-07T07:19:39.408Z,6.35
2022-09-07T07:24:53.913Z,7.40
2022-09-07T07:27:22.032Z,5.72
2022-09-07T07:29:49.974Z,10.20
2022-09-07T07:32:17.216Z,9.35
2022-09-07T07:34:44.341Z,6.47
2022-09-07T07:37:11.466Z,7.32
2022-09-07T07:42:25.839Z,5.80
2022-09-07T07:47:40.218Z,8.57
2022-09-07T07:55:43.457Z,5.25
2022-09-07T07:58:11.049Z,7.82
2022-09-07T08:00:53.893Z,7.25
2022-09-07T08:03:22.783Z,7.13
2022-09-07T08:05:49.901Z,8.43
2022-09-07T08:08:17.125Z,4.78
2022-09-07T08:10:46.174Z,9.10
2022-09-07T08:13:14.173Z,6.32
2022-09-07T08:15:44.564Z,5.93
2022-09-07T08:18:12.813Z,7.30
2022-09-07T08:20:40.741Z,4.15
2022-09-07T08:23:08.168Z,3.97
2022-09-07T08:25:36.080Z,6.88
2022-09-07T08:28:04.335Z,3.28
2022-09-07T08:30:31.517Z,4.50
2022-09-07T08:32:58.862Z,5.32
2022-09-07T08:35:25.994Z,4.20
2022-09-07T08:37:53.119Z,5.22
2022-09-07T08:40:20.809Z,5.88
2022-09-07T08:42:54.113Z,3.22
2022-09-07T08:45:30.338Z,4.25
2022-09-07T08:47:58.363Z,5.75
2022-09-07T08:50:29.354Z,5.22
2022-09-07T08:52:56.538Z,10.02
2022-09-07T08:55:46.706Z,10.18
2022-09-07T08:58:32.523Z,6.13
2022-09-07T09:06:58.752Z,4.90
2022-09-07T09:09:41.482Z,4.55
2022-09-07T09:12:32.357Z,4.07
2022-09-07T09:15:04.739Z,4.88
2022-09-07T09:17:38.390Z,3.33
2022-09-07T09:20:17.821Z,3.65
2022-09-07T09:22:45.238Z,6.88
2022-09-07T09:25:22.790Z,5.97
2022-09-07T09:27:50.393Z,4.03
2022-09-07T09:30:19.087Z,4.38
2022-09-07T09:32:47.496Z,4.45
2022-09-07T09:35:28.145Z,10.50
2022-09-07T09:37:57.707Z,4.13
2022-09-07T09:40:25.122Z,3.95
2022-09-07T09:43:11.298Z,4.05
2022-09-07T09:48:34.508Z,6.50
2022-09-07T09:54:06.181Z,5.47
2022-09-07T09:56:40.933Z,4.10
2022-09-07T10:05:41.148Z,5.55
2022-09-07T10:08:20.093Z,4.47
2022-09-07T10:10:58.007Z,5.93
2022-09-07T10:13:28.383Z,4.13
2022-09-07T10:15:56.764Z,4.80
2022-09-07T10:18:32.417Z,5.30
2022-09-07T10:21:13.611Z,3.97
2022-09-07T10:26:21.672Z,5.63
2022-09-07T10:31:40.345Z,4.57
2022-09-07T10:34:31.538Z,6.05
2022-09-07T10:39:32.577Z,6.47
2022-09-07T10:42:05.898Z,4.30
2022-09-07T10:44:46.869Z,5.07
2022-09-07T10:47:28.500Z,4.53
2022-09-07T10:53:23.849Z,7.78
2022-09-07T10:56:05.381Z,6.68
2022-09-07T11:01:22.818Z,7.75
2022-09-07T11:03:53.033Z,5.10
2022-09-07T11:06:26.779Z,7.32
2022-09-07T11:09:20.516Z,4.80
2022-09-07T11:12:08.285Z,3.50
2022-09-07T11:14:45.302Z,7.38
2022-09-07T11:17:21.577Z,4.38
2022-09-07T11:19:53.392Z,4.65
2022-09-07T11:22:23.449Z,5.03
2022-09-07T11:30:20.153Z,5.28
2022-09-07T11:32:56.902Z,4.03
2022-09-07T11:35:36.682Z,7.40
2022-09-07T11:38:23.606Z,6.35
2022-09-07T11:40:58.222Z,8.35
2022-09-07T11:43:30.960Z,5.78
2022-09-07T11:46:00.993Z,6.13
2022-09-07T11:48:42.770Z,5.93
2022-09-07T11:51:13.974Z,5.60
2022-09-07T11:53:45.386Z,6.50
2022-09-07T11:56:15.255Z,4.75
2022-09-07T11:58:54.409Z,5.88
2022-09-07T12:01:40.026Z,4.20
2022-09-07T12:04:24.947Z,5.22
2022-09-07T12:07:11.038Z,6.25
2022-09-07T12:09:50.868Z,9.70
2022-09-07T12:12:27.031Z,4.97
2022-09-07T12:14:57.034Z,5.22
2022-09-07T12:17:24.175Z,5.30
2022-09-07T12:20:10.249Z,7.90
2022-09-07T12:22:38.016Z,5.03
2022-09-07T12:25:08.919Z,4.15
2022-09-07T12:30:03.208Z,5.05
2022-09-07T12:32:57.361Z,5.43
2022-09-07T12:35:28.744Z,6.45
2022-09-07T12:38:16.190Z,5.55
2022-09-07T12:40:49.669Z,5.22
2022-09-07T12:43:17.226Z,4.95
2022-09-07T12:45:44.505Z,4.13
2022-09-07T12:48:17.811Z,5.30
2022-09-07T12:51:03.191Z,6.70
2022-09-07T12:53:48.912Z,4.32
2022-09-07T12:56:25.186Z,6.38
2022-09-07T12:58:59.535Z,7.82
2022-09-07T13:01:37.739Z,5.60
2022-09-07T13:04:23.337Z,6.18
2022-09-07T13:07:05.823Z,4.47
2022-09-07T13:09:34.648Z,5.85
2022-09-07T13:12:04.730Z,5.65
2022-09-07T13:14:33.920Z,5.50
2022-09-07T13:17:22.231Z,4.45
2022-09-07T13:19:52.489Z,5.57
2022-09-07T13:22:31.800Z,5.10
2022-09-07T13:25:00.186Z,5.78
2022-09-07T13:27:36.775Z,4.85
2022-09-07T13:30:20.402Z,5.07
2022-09-07T13:35:35.585Z,6.75
2022-09-07T13:38:03.607Z,5.53
2022-09-07T13:40:32.640Z,4.35
2022-09-07T13:43:00.149Z,5.88
2022-09-07T13:45:45.773Z,6.63
2022-09-07T13:48:28.069Z,8.02
2022-09-07T13:51:08.385Z,5.97
2022-09-07T13:53:44.878Z,5.93
2022-09-07T13:56:21.369Z,5.25
2022-09-07T13:58:50.351Z,5.85
2022-09-07T14:01:22.596Z,8.60
2022-09-07T14:03:52.268Z,5.57
2022-09-07T14:06:22.445Z,7.38
2022-09-07T14:08:50.619Z,6.15
2022-09-07T14:11:18.695Z,6.80
2022-09-07T14:13:45.891Z,4.88
2022-09-07T14:16:13.109Z,6.03
2022-09-07T14:18:40.669Z,5.57
2022-09-07T14:21:09.689Z,5.13
2022-09-07T14:23:39.778Z,5.05
2022-09-07T14:26:17.273Z,5.97
2022-09-07T14:28:46.020Z,5.13
2022-09-07T14:31:17.327Z,5.80
2022-09-07T14:33:50.888Z,5.80
2022-09-07T14:36:41.701Z,7.45
2022-09-07T14:39:07.275Z,7.07
2022-09-07T14:41:38.579Z,6.93
2022-09-07T14:44:06.487Z,5.93
2022-09-07T14:46:34.249Z,6.00
2022-09-07T14:49:03.020Z,5.30
2022-09-07T14:51:36.174Z,4.50
2022-09-07T14:54:05.913Z,7.38
2022-09-07T14:56:37.729Z,5.35
2022-09-07T14:59:30.902Z,7.22
2022-09-07T15:02:16.949Z,7.68
2022-09-07T15:04:44.281Z,7.35
2022-09-07T15:07:30.707Z,6.88
2022-09-07T15:10:12.799Z,6.05
2022-09-07T15:12:42.167Z,6.53
2022-09-07T15:15:22.143Z,6.38
2022-09-07T15:17:49.560Z,6.85
2022-09-07T15:20:32.467Z,7.05
2022-09-07T15:22:59.800Z,5.47
2022-09-07T15:25:26.954Z,6.00
2022-09-07T15:27:57.224Z,7.60
2022-09-07T15:30:25.249Z,8.70
2022-09-07T15:32:52.488Z,8.18
2022-09-07T15:35:19.803Z,6.65
2022-09-07T15:38:04.935Z,7.03
2022-09-07T15:40:47.347Z,6.30
2022-09-07T15:43:25.344Z,5.22
2022-09-07T15:45:52.837Z,6.15
2022-09-07T15:48:21.006Z,7.32
2022-09-07T15:50:48.309Z,7.43
2022-09-07T15:56:03.890Z,5.68
2022-09-07T15:58:31.329Z,8.23
2022-09-07T16:03:54.560Z,8.02
2022-09-07T16:06:22.617Z,11.60
2022-09-07T16:08:51.381Z,7.20
2022-09-07T16:11:24.233Z,5.95
2022-09-07T16:14:01.774Z,6.00
2022-09-07T16:19:20.669Z,5.68
2022-09-07T16:21:48.207Z,5.85
2022-09-07T16:24:16.290Z,7.93
2022-09-07T16:26:43.453Z,5.70
2022-09-07T16:29:10.658Z,8.00
2022-09-07T16:31:38.173Z,8.60
2022-09-07T16:34:05.572Z,6.40
2022-09-07T16:36:32.872Z,8.02
2022-09-07T16:39:01.007Z,11.90
2022-09-07T16:41:31.296Z,8.90
2022-09-07T16:43:59.051Z,11.13
2022-09-07T16:46:27.678Z,8.05
2022-09-07T16:48:55.164Z,8.13
2022-09-07T16:51:22.921Z,13.20
2022-09-07T16:53:51.188Z,8.73
2022-09-07T16:56:19.733Z,11.32
2022-09-07T16:58:48.115Z,11.30
2022-09-07T17:01:16.715Z,9.95
2022-09-07T17:03:44.280Z,9.18
2022-09-07T17:06:12.443Z,10.27
2022-09-07T17:08:40.149Z,12.55
2022-09-07T17:11:14.555Z,9.77
2022-09-07T17:13:42.772Z,10.38
2022-09-07T17:16:17.678Z,11.40
2022-09-07T17:21:33.546Z,12.40
2022-09-07T17:24:01.462Z,10.50
2022-09-07T17:26:29.120Z,10.18
2022-09-07T17:29:00.426Z,10.32
2022-09-07T17:34:16.571Z,9.13
2022-09-07T17:36:43.728Z,10.13
2022-09-07T17:39:16.318Z,8.88
2022-09-07T17:41:44.432Z,14.10
2022-09-07T17:44:11.992Z,13.50
2022-09-07T17:46:39.396Z,13.40
2022-09-07T17:49:12.333Z,12.48
2022-09-07T17:51:39.647Z,14.55
2022-09-07T17:54:11.571Z,13.43
2022-09-07T17:56:39.650Z,11.15
2022-09-07T18:01:54.198Z,15.70
2022-09-07T18:04:21.789Z,14.57
2022-09-07T18:06:49.200Z,13.15
2022-09-07T18:09:25.634Z,11.45
2022-09-07T18:11:52.810Z,16.10
2022-09-07T18:14:20.208Z,15.02
2022-09-07T18:16:49.140Z,14.18
2022-09-07T18:19:16.938Z,14.38
2022-09-07T18:21:45.342Z,11.63
2022-09-07T18:24:23.257Z,16.77
2022-09-07T18:26:52.426Z,14.05
2022-09-07T18:29:34.047Z,14.93
2022-09-07T18:32:04.753Z,15.25
2022-09-07T18:37:00.393Z,11.63
2022-09-07T18:39:27.960Z,12.82
2022-09-07T18:41:55.568Z,10.95
2022-09-07T18:47:21.094Z,12.00
2022-09-07T18:49:49.342Z,17.73
2022-09-07T18:55:05.481Z,16.10
2022-09-07T18:57:32.901Z,22.35
2022-09-07T19:00:00.067Z,23.85
2022-09-07T19:02:27.323Z,16.25
2022-09-07T19:07:41.861Z,20.30
2022-09-07T19:10:11.111Z,21.80
2022-09-07T19:12:42.585Z,22.33
2022-09-07T19:15:12.505Z,22.67
2022-09-07T19:17:39.669Z,19.10
2022-09-07T19:20:07.095Z,17.23
2022-09-07T19:22:34.354Z,16.13
2022-09-07T19:25:01.460Z,19.83
2022-09-07T19:27:28.634Z,22.42
2022-09-07T19:29:55.808Z,18.73
2022-09-07T19:32:23.010Z,21.13
2022-09-07T19:34:54.458Z,19.83
2022-09-07T19:37:28.256Z,21.88
2022-09-07T19:39:55.565Z,20.88
2022-09-07T19:42:23.672Z,21.92
2022-09-07T19:44:51.097Z,16.80
2022-09-07T19:47:18.601Z,22.73
2022-09-07T19:49:45.793Z,20.30
2022-09-07T19:52:13.149Z,19.63
2022-09-07T19:54:40.643Z,20.58
2022-09-07T19:57:07.804Z,15.80
2022-09-07T19:59:35.159Z,20.67
2022-09-07T20:02:02.403Z,21.02
2022-09-07T20:04:29.588Z,17.85
2022-09-07T20:06:56.950Z,17.58
2022-09-07T20:09:24.824Z,17.83
2022-09-07T20:11:51.969Z,19.98
2022-09-07T20:14:19.328Z,16.67
2022-09-07T20:16:46.533Z,18.08
2022-09-07T20:19:14.934Z,17.20
2022-09-07T20:21:42.773Z,17.98
2022-09-07T20:24:11.796Z,21.98
2022-09-07T20:26:38.948Z,19.55
2022-09-07T20:29:26.168Z,23.45
2022-09-07T20:31:53.792Z,17.48
2022-09-07T20:34:21.209Z,19.67
2022-09-07T20:36:51.663Z,22.75
2022-09-07T20:39:19.136Z,23.45
2022-09-07T20:41:46.621Z,18.10
2022-09-07T20:44:14.269Z,21.50
2022-09-07T20:46:41.527Z,21.90
2022-09-07T20:49:09.603Z,19.83
2022-09-07T20:51:36.762Z,23.00
2022-09-07T20:54:03.949Z,20.45
2022-09-07T20:56:31.409Z,17.85
2022-09-07T20:59:02.257Z,19.27
2022-09-07T21:01:32.934Z,21.63
2022-09-07T21:04:00.821Z,22.52
2022-09-07T21:06:28.972Z,18.95
2022-09-07T21:08:57.399Z,17.77
2022-09-07T21:11:29.346Z,21.75
2022-09-07T21:13:57.530Z,21.83
2022-09-07T21:16:25.070Z,19.10
2022-09-07T21:18:55.859Z,20.80
2022-09-07T21:21:23.967Z,18.10
2022-09-07T21:24:00.913Z,20.33
2022-09-07T21:26:29.042Z,20.63
2022-09-07T21:29:00.275Z,20.17
2022-09-07T21:31:28.285Z,19.95
2022-09-07T21:33:56.677Z,24.92
2022-09-07T21:36:24.160Z,16.80
2022-09-07T21:38:51.394Z,15.13
2022-09-07T21:41:22.491Z,19.27
2022-09-07T21:46:18.227Z,21.15
2022-09-07T21:48:46.264Z,18.60
2022-09-07T21:51:14.293Z,17.17
2022-09-07T21:53:41.786Z,18.92
2022-09-07T21:56:11.496Z,19.40
2022-09-07T21:58:39.928Z,20.25
2022-09-07T22:01:11.740Z,15.13
2022-09-07T22:03:40.120Z,14.23
2022-09-07T22:06:07.817Z,15.25
2022-09-07T22:08:36.038Z,16.20
2022-09-07T22:11:07.361Z,17.13
2022-09-07T22:13:35.016Z,14.75
2022-09-07T22:16:02.855Z,14.75
2022-09-07T22:18:30.343Z,17.70
2022-09-07T22:21:05.069Z,17.30
2022-09-07T22:23:36.697Z,16.83
2022-09-07T22:26:03.953Z,22.10
2022-09-07T22:28:31.549Z,20.35
2022-09-07T22:31:09.169Z,22.77
2022-09-07T22:33:36.634Z,20.15
2022-09-07T22:36:15.815Z,20.08
2022-09-07T22:38:43.896Z,19.42
2022-09-07T22:41:12.440Z,18.67
2022-09-07T22:43:39.828Z,20.25
2022-09-07T22:46:07.613Z,19.80
2022-09-07T22:48:35.142Z,22.33
2022-09-07T22:51:02.837Z,20.67
2022-09-07T22:53:30.889Z,19.52
2022-09-07T22:55:58.371Z,33.70
2022-09-07T22:58:28.900Z,19.25
2022-09-07T23:01:01.506Z,16.80
2022-09-07T23:03:29.680Z,18.55
2022-09-07T23:05:57.204Z,20.42
2022-09-07T23:08:25.494Z,18.98
2022-09-07T23:10:53.007Z,16.75
2022-09-07T23:13:20.695Z,17.33
2022-09-07T23:15:48.435Z,18.17
2022-09-07T23:18:16.083Z,16.05
2022-09-07T23:20:43.215Z,16.65
2022-09-07T23:23:10.717Z,16.15
2022-09-07T23:25:38.669Z,16.88
2022-09-07T23:28:07.164Z,19.45
2022-09-07T23:30:35.737Z,15.77
2022-09-07T23:33:03.254Z,16.33
2022-09-07T23:35:30.447Z,16.65
2022-09-07T23:37:57.907Z,17.58
2022-09-07T23:40:25.294Z,14.25
2022-09-07T23:42:53.148Z,14.35
2022-09-07T23:45:20.433Z,15.13
2022-09-07T23:47:47.578Z,13.77
2022-09-07T23:50:14.719Z,14.65
2022-09-07T23:52:41.908Z,14.30
2022-09-07T23:55:10.962Z,19.20
2022-09-07T23:57:38.862Z,12.70
